createdAt,value
2023-02-04T00:00:37.615Z,6.30
2023-02-04T00:03:06.132Z,6.30
2023-02-04T00:05:36.616Z,6.50
2023-02-04T00:08:04.786Z,6.60
2023-02-04T00:10:33.667Z,6.30
2023-02-04T00:13:03.443Z,6.40
2023-02-04T00:15:36.953Z,6.30
2023-02-04T00:18:07.210Z,6.60
2023-02-04T00:20:35.061Z,6.60
2023-02-04T00:23:03.488Z,15.40
2023-02-04T00:25:31.515Z,12.30
2023-02-04T00:27:59.405Z,11.10
2023-02-04T00:30:27.462Z,11.30
2023-02-04T00:32:56.792Z,8.90
2023-02-04T00:35:24.795Z,6.90
2023-02-04T00:37:53.415Z,6.60
2023-02-04T00:40:21.367Z,6.50
2023-02-04T00:42:49.486Z,9.90
2023-02-04T00:45:18.163Z,9.40
2023-02-04T00:47:46.992Z,8.20
2023-02-04T00:50:15.482Z,8.90
2023-02-04T00:52:44.930Z,8.70
2023-02-04T00:55:13.520Z,8.40
2023-02-04T00:57:41.736Z,8.70
2023-02-04T01:00:10.965Z,8.60
2023-02-04T01:02:40.895Z,12.90
2023-02-04T01:05:09.035Z,11.40
2023-02-04T01:07:37.465Z,9.10
2023-02-04T01:10:06.079Z,8.60
2023-02-04T01:12:35.458Z,8.20
2023-02-04T01:15:04.054Z,7.90
2023-02-04T01:17:32.755Z,8.10
2023-02-04T01:20:00.769Z,8.90
2023-02-04T01:22:28.846Z,9.00
2023-02-04T01:24:56.840Z,10.60
2023-02-04T01:27:44.537Z,10.60
2023-02-04T01:30:13.924Z,11.10
2023-02-04T01:32:43.931Z,8.90
2023-02-04T01:35:12.096Z,9.80
2023-02-04T01:37:40.063Z,10.30
2023-02-04T01:40:09.506Z,10.20
2023-02-04T01:42:37.511Z,10.30
2023-02-04T01:45:08.779Z,12.00
2023-02-04T01:47:36.901Z,12.00
2023-02-04T01:50:10.012Z,15.10
2023-02-04T01:52:40.257Z,14.60
2023-02-04T01:55:19.295Z,14.70
2023-02-04T01:57:48.854Z,14.50
2023-02-04T02:00:19.472Z,13.90
2023-02-04T02:02:50.746Z,15.40
2023-02-04T02:05:44.218Z,17.00
2023-02-04T02:08:12.871Z,18.70
2023-02-04T02:10:42.240Z,14.90
2023-02-04T02:13:12.912Z,11.10
2023-02-04T02:15:43.016Z,10.20
2023-02-04T02:18:11.920Z,10.20
2023-02-04T02:20:40.152Z,10.30
2023-02-04T02:23:14.204Z,10.20
2023-02-04T02:25:42.477Z,10.10
2023-02-04T02:28:13.967Z,8.70
2023-02-04T02:30:42.284Z,9.10
2023-02-04T02:33:10.962Z,8.90
2023-02-04T02:35:38.837Z,8.70
2023-02-04T02:38:07.007Z,8.30
2023-02-04T02:40:35.441Z,7.60
2023-02-04T02:43:03.379Z,7.80
2023-02-04T02:45:33.095Z,7.40
2023-02-04T02:48:03.273Z,7.20
2023-02-04T02:50:32.647Z,8.20
2023-02-04T02:53:02.146Z,8.40
2023-02-04T02:55:30.508Z,10.10
2023-02-04T02:57:58.976Z,10.70
2023-02-04T03:00:29.139Z,11.50
2023-02-04T03:03:07.698Z,10.70
2023-02-04T03:05:40.998Z,10.80
2023-02-04T03:08:12.445Z,9.80
2023-02-04T03:10:41.447Z,9.00
2023-02-04T03:13:09.977Z,8.90
2023-02-04T03:15:37.880Z,8.60
2023-02-04T03:18:06.366Z,9.30
2023-02-04T03:20:34.824Z,7.70
2023-02-04T03:23:03.057Z,7.10
2023-02-04T03:25:31.488Z,6.90
2023-02-04T03:27:59.588Z,7.30
2023-02-04T03:30:27.747Z,6.70
2023-02-04T03:32:56.433Z,6.50
2023-02-04T03:35:24.276Z,6.70
2023-02-04T03:37:52.985Z,6.30
2023-02-04T03:40:20.867Z,6.50
2023-02-04T03:42:48.803Z,6.20
2023-02-04T03:45:16.925Z,6.00
2023-02-04T03:47:45.154Z,6.60
2023-02-04T03:50:14.504Z,6.20
2023-02-04T03:52:45.137Z,6.20
2023-02-04T03:55:13.289Z,5.70
2023-02-04T03:57:41.691Z,5.50
2023-02-04T04:00:10.617Z,5.70
2023-02-04T04:02:41.775Z,5.90
2023-02-04T04:05:10.171Z,6.10
2023-02-04T04:07:38.797Z,6.20
2023-02-04T04:10:07.400Z,5.40
2023-02-04T04:12:35.614Z,6.10
2023-02-04T04:15:04.135Z,6.30
2023-02-04T04:17:35.250Z,6.50
2023-02-04T04:20:05.414Z,6.40
2023-02-04T04:22:34.042Z,7.20
2023-02-04T04:25:02.145Z,6.90
2023-02-04T04:27:30.378Z,5.90
2023-02-04T04:29:59.591Z,5.70
2023-02-04T04:32:27.756Z,8.00
2023-02-04T04:34:55.603Z,10.60
2023-02-04T04:37:23.455Z,11.60
2023-02-04T04:39:51.321Z,11.00
2023-02-04T04:42:19.589Z,10.50
2023-02-04T04:44:47.491Z,10.20
2023-02-04T04:47:15.515Z,9.40
2023-02-04T04:49:44.710Z,9.10
2023-02-04T04:52:12.688Z,8.60
2023-02-04T04:54:40.595Z,8.50
2023-02-04T04:57:08.876Z,7.90
2023-02-04T04:59:38.273Z,7.50
2023-02-04T05:02:06.200Z,7.30
2023-02-04T05:04:34.102Z,7.60
2023-02-04T05:07:02.857Z,7.90
2023-02-04T05:09:31.403Z,7.40
2023-02-04T05:11:59.462Z,8.50
2023-02-04T05:14:27.360Z,9.10
2023-02-04T05:16:55.287Z,9.80
2023-02-04T05:19:23.080Z,10.60
2023-02-04T05:21:51.833Z,10.40
2023-02-04T05:24:20.242Z,10.00
2023-02-04T05:26:48.316Z,10.40
2023-02-04T05:29:16.203Z,9.80
2023-02-04T05:31:46.866Z,9.90
2023-02-04T05:34:14.835Z,9.90
2023-02-04T05:36:42.843Z,10.30
2023-02-04T05:39:10.791Z,10.50
2023-02-04T05:41:39.810Z,10.70
2023-02-04T05:44:07.831Z,12.50
2023-02-04T05:46:37.739Z,12.20
2023-02-04T05:49:06.127Z,11.30
2023-02-04T05:51:34.726Z,11.10
2023-02-04T05:54:02.552Z,9.60
2023-02-04T05:56:33.739Z,8.80
2023-02-04T05:59:01.600Z,7.30
2023-02-04T06:01:29.764Z,6.80
2023-02-04T06:03:57.694Z,6.00
2023-02-04T06:06:25.562Z,8.20
2023-02-04T06:08:53.595Z,8.40
2023-02-04T06:11:24.331Z,7.80
2023-02-04T06:13:52.785Z,7.50
2023-02-04T06:16:20.781Z,6.20
2023-02-04T06:18:48.834Z,5.20
2023-02-04T06:21:17.202Z,4.50
2023-02-04T06:23:45.339Z,4.20
2023-02-04T06:27:05.849Z,4.70
2023-02-04T06:29:33.750Z,4.90
2023-02-04T06:32:01.643Z,4.60
2023-02-04T06:34:29.844Z,4.70
2023-02-04T06:36:57.929Z,4.40
2023-02-04T06:39:27.998Z,4.50
2023-02-04T06:41:55.964Z,4.30
2023-02-04T06:44:23.898Z,4.20
2023-02-04T06:46:52.285Z,4.50
2023-02-04T06:49:20.398Z,4.70
2023-02-04T06:51:49.402Z,4.90
2023-02-04T06:54:17.727Z,4.60
2023-02-04T06:56:48.601Z,5.00
2023-02-04T06:59:16.512Z,6.00
2023-02-04T07:01:44.519Z,5.50
2023-02-04T07:04:14.008Z,4.80
2023-02-04T07:06:42.207Z,5.00
2023-02-04T07:09:10.038Z,4.80
2023-02-04T07:11:38.107Z,4.70
2023-02-04T07:14:06.063Z,4.20
2023-02-04T07:16:36.440Z,4.60
2023-02-04T07:19:04.357Z,4.70
2023-02-04T07:21:33.068Z,4.40
2023-02-04T07:24:01.140Z,4.50
2023-02-04T07:26:29.068Z,4.60
2023-02-04T07:28:56.994Z,4.80
2023-02-04T07:31:24.908Z,5.00
2023-02-04T07:33:52.947Z,4.50
2023-02-04T07:36:21.333Z,5.10
2023-02-04T07:38:49.279Z,4.10
2023-02-04T07:41:17.390Z,4.30
2023-02-04T07:43:46.041Z,4.40
2023-02-04T07:46:13.876Z,4.10
2023-02-04T09:50:34.999Z,3.30
2023-02-04T09:53:05.974Z,3.20
2023-02-04T09:55:38.607Z,3.60
2023-02-04T09:58:13.652Z,5.70
2023-02-04T10:00:41.861Z,7.40
2023-02-04T10:03:19.460Z,12.30
2023-02-04T10:05:47.967Z,4.70
2023-02-04T10:08:19.861Z,3.90
2023-02-04T10:10:48.398Z,3.50
2023-02-04T10:13:22.236Z,3.70
2023-02-04T10:18:28.948Z,3.70
2023-02-04T10:21:01.187Z,3.80
2023-02-04T10:23:29.292Z,3.90
2023-02-04T10:25:57.564Z,3.80
2023-02-04T10:28:35.274Z,4.00
2023-02-04T10:31:03.999Z,3.80
2023-02-04T10:33:34.132Z,3.60
2023-02-04T10:36:01.931Z,3.00
2023-02-04T10:38:29.869Z,2.70
2023-02-04T10:41:05.697Z,2.80
2023-02-04T10:43:33.509Z,2.60
2023-02-04T10:46:02.728Z,2.40
2023-02-04T10:48:30.993Z,2.80
2023-02-04T10:50:59.481Z,2.50
2023-02-04T10:53:46.396Z,3.00
2023-02-04T10:56:21.474Z,3.30
2023-02-04T10:58:49.524Z,2.80
2023-02-04T11:01:17.821Z,3.00
2023-02-04T11:03:48.220Z,2.90
2023-02-04T11:06:22.024Z,2.90
2023-02-04T11:08:53.464Z,3.00
2023-02-04T11:11:24.613Z,3.00
2023-02-04T11:13:52.558Z,4.80
2023-02-04T11:16:23.943Z,4.80
2023-02-04T11:19:11.388Z,3.10
2023-02-04T11:21:39.320Z,2.70
2023-02-04T11:24:09.893Z,2.60
2023-02-04T11:26:45.149Z,2.40
2023-02-04T11:29:15.713Z,2.50
2023-02-04T11:31:49.767Z,2.60
2023-02-04T11:34:21.628Z,2.60
2023-02-04T11:37:02.039Z,2.70
2023-02-04T11:39:42.616Z,2.40
2023-02-04T11:42:29.254Z,3.00
2023-02-04T11:45:02.614Z,3.30
2023-02-04T11:47:35.724Z,3.80
2023-02-04T11:50:13.344Z,2.60
2023-02-04T11:52:41.944Z,3.10
2023-02-04T11:55:10.414Z,3.20
2023-02-04T11:57:40.484Z,3.10
2023-02-04T12:00:21.055Z,3.20
2023-02-04T12:02:51.052Z,2.90
2023-02-04T12:05:19.787Z,2.80
2023-02-04T12:07:48.086Z,2.80
2023-02-04T12:10:25.490Z,3.30
2023-02-04T12:12:57.732Z,2.90
2023-02-04T12:15:38.278Z,2.80
2023-02-04T12:18:07.577Z,3.50
2023-02-04T12:20:36.256Z,3.00
2023-02-04T12:23:04.458Z,3.10
2023-02-04T12:25:33.869Z,3.20
2023-02-04T12:28:02.402Z,4.60
2023-02-04T12:30:31.040Z,4.90
2023-02-04T12:32:59.397Z,3.40
2023-02-04T12:35:27.457Z,4.40
2023-02-04T12:37:56.560Z,4.00
2023-02-04T12:40:24.722Z,3.70
2023-02-04T12:42:53.122Z,5.10
2023-02-04T12:45:21.121Z,5.10
2023-02-04T12:47:50.759Z,4.30
2023-02-04T12:50:22.708Z,5.10
2023-02-04T12:52:58.094Z,4.00
2023-02-04T12:55:27.518Z,4.10
2023-02-04T12:57:56.497Z,4.60
2023-02-04T13:00:24.737Z,3.80
2023-02-04T13:02:55.174Z,3.70
2023-02-04T13:05:23.362Z,3.80
2023-02-04T13:07:51.317Z,5.00
2023-02-04T13:10:20.173Z,4.30
2023-02-04T13:12:51.294Z,4.00
2023-02-04T13:15:20.331Z,4.10
2023-02-04T13:17:48.640Z,3.60
2023-02-04T13:20:17.274Z,4.70
2023-02-04T13:22:45.645Z,5.00
2023-02-04T13:25:14.791Z,4.10
2023-02-04T13:27:42.749Z,4.70
2023-02-04T13:30:14.083Z,4.50
2023-02-04T13:32:43.545Z,4.30
2023-02-04T13:35:12.072Z,4.50
2023-02-04T13:37:40.109Z,4.60
2023-02-04T13:40:09.553Z,3.70
2023-02-04T13:42:38.538Z,3.50
2023-02-04T13:45:07.878Z,2.70
2023-02-04T13:47:36.849Z,2.80
2023-02-04T13:50:05.346Z,1.90
2023-02-04T13:52:34.635Z,2.20
2023-02-04T13:55:05.251Z,2.10
2023-02-04T13:57:33.715Z,2.90
2023-02-04T14:00:01.720Z,2.90
2023-02-04T14:02:30.328Z,2.70
2023-02-04T14:04:58.684Z,2.30
2023-02-04T14:07:26.858Z,2.50
2023-02-04T14:09:55.346Z,2.40
2023-02-04T14:12:23.893Z,2.20
2023-02-04T14:14:51.786Z,2.20
2023-02-04T14:17:19.572Z,2.50
2023-02-04T14:19:47.915Z,3.00
2023-02-04T14:22:15.838Z,2.70
2023-02-04T14:24:44.345Z,2.90
2023-02-04T14:27:12.439Z,2.40
2023-02-04T14:29:41.598Z,3.00
2023-02-04T14:32:09.861Z,2.50
2023-02-04T14:34:40.232Z,2.30
2023-02-04T14:37:08.098Z,2.00
2023-02-04T14:39:35.928Z,2.10
2023-02-04T14:42:05.596Z,2.30
2023-02-04T14:44:34.675Z,2.40
2023-02-04T14:47:02.644Z,2.30
2023-02-04T14:49:33.132Z,2.30
2023-02-04T14:52:01.174Z,3.20
2023-02-04T14:54:29.206Z,2.90
2023-02-04T14:56:57.586Z,3.20
2023-02-04T14:59:25.386Z,4.30
2023-02-04T15:01:53.692Z,7.20
2023-02-04T15:04:21.703Z,5.10
2023-02-04T15:06:53.977Z,3.80
2023-02-04T15:09:22.011Z,2.90
2023-02-04T15:11:50.876Z,2.30
2023-02-04T15:14:19.030Z,2.40
2023-02-04T15:16:50.044Z,2.60
2023-02-04T15:19:18.399Z,3.60
2023-02-04T15:21:46.746Z,2.30
2023-02-04T15:24:14.664Z,2.80
2023-02-04T15:26:42.735Z,2.40
2023-02-04T15:29:11.115Z,2.30
2023-02-04T15:31:39.995Z,3.70
2023-02-04T15:34:08.217Z,3.00
2023-02-04T15:36:36.427Z,3.30
2023-02-04T15:39:04.418Z,4.70
2023-02-04T15:44:18.730Z,5.30
2023-02-04T15:46:47.060Z,5.50
2023-02-04T15:49:14.912Z,3.40
2023-02-04T15:51:43.905Z,4.40
2023-02-04T15:54:12.009Z,4.80
2023-02-04T15:56:40.031Z,3.40
2023-02-04T15:59:08.008Z,3.50
2023-02-04T16:01:38.061Z,4.00
2023-02-04T16:04:07.578Z,2.90
2023-02-04T16:06:37.364Z,3.80
2023-02-04T16:09:05.570Z,3.40
2023-02-04T16:11:35.884Z,4.60
2023-02-04T16:14:04.304Z,3.90
2023-02-04T16:16:32.383Z,3.10
2023-02-04T16:19:00.368Z,2.90
2023-02-04T16:21:28.396Z,3.20
2023-02-04T16:23:56.501Z,2.70
2023-02-04T16:26:24.430Z,2.80
2023-02-04T16:28:52.926Z,3.40
2023-02-04T16:31:20.957Z,3.30
2023-02-04T16:33:49.620Z,3.80
2023-02-04T16:36:18.721Z,3.20
2023-02-04T16:38:47.294Z,3.10
2023-02-04T16:41:15.232Z,3.80
2023-02-04T16:43:43.438Z,4.10
2023-02-04T16:46:12.507Z,3.80
2023-02-04T16:48:40.504Z,3.80
2023-02-04T16:51:11.468Z,3.70
2023-02-04T16:53:39.724Z,3.50
2023-02-04T16:56:07.671Z,3.30
2023-02-04T16:58:36.065Z,3.40
2023-02-04T17:01:05.121Z,3.70
2023-02-04T17:03:34.588Z,3.70
2023-02-04T17:06:02.441Z,4.20
2023-02-04T17:08:30.392Z,4.10
2023-02-04T17:11:16.908Z,3.20
2023-02-04T17:13:44.972Z,3.00
2023-02-04T17:16:13.365Z,3.60
2023-02-04T17:18:41.523Z,3.10
2023-02-04T17:21:09.605Z,3.10
2023-02-04T17:23:37.767Z,2.80
2023-02-04T17:26:05.607Z,2.60
2023-02-04T17:28:34.969Z,2.80
2023-02-04T17:31:03.042Z,2.50
2023-02-04T17:33:32.594Z,3.80
2023-02-04T17:36:01.112Z,4.80
2023-02-04T17:38:31.629Z,4.10
2023-02-04T17:41:01.180Z,2.90
2023-02-04T17:43:29.410Z,3.40
2023-02-04T17:45:57.477Z,2.80
2023-02-04T17:48:25.338Z,2.60
2023-02-04T17:50:53.622Z,2.20
2023-02-04T17:53:21.550Z,2.50
2023-02-04T17:55:49.638Z,2.50
2023-02-04T17:58:27.854Z,2.50
2023-02-04T18:00:57.853Z,2.30
2023-02-04T18:03:27.908Z,2.60
2023-02-04T18:05:56.683Z,3.10
2023-02-04T18:08:30.559Z,2.90
2023-02-04T18:13:33.172Z,3.60
2023-02-04T18:16:08.197Z,3.90
2023-02-04T18:18:37.495Z,4.30
2023-02-04T18:21:15.026Z,4.00
2023-02-04T18:23:46.007Z,3.90
2023-02-04T18:26:18.090Z,3.90
2023-02-04T18:28:47.920Z,2.90
2023-02-04T18:31:25.253Z,2.70
2023-02-04T18:33:53.360Z,3.20
2023-02-04T18:36:23.129Z,3.10
2023-02-04T18:38:51.186Z,3.30
2023-02-04T18:41:27.851Z,3.80
2023-02-04T18:46:36.540Z,3.90
2023-02-04T18:49:06.519Z,4.80
2023-02-04T18:51:40.281Z,3.10
2023-02-04T18:54:34.369Z,3.00
2023-02-04T18:57:21.739Z,4.00
2023-02-04T18:59:50.486Z,3.20
2023-02-04T19:02:39.366Z,2.90
2023-02-04T19:05:23.137Z,2.70
2023-02-04T19:08:05.893Z,2.60
2023-02-04T19:10:38.787Z,3.20
2023-02-04T19:13:42.681Z,3.20
2023-02-04T19:16:23.872Z,2.60
2023-02-04T19:18:53.537Z,2.30
2023-02-04T19:21:23.328Z,2.70
2023-02-04T19:24:14.083Z,3.60
2023-02-04T19:26:43.997Z,3.10
2023-02-04T19:29:24.991Z,3.30
2023-02-04T19:31:59.466Z,3.20
2023-02-04T19:34:34.694Z,3.00
2023-02-04T19:37:02.540Z,2.40
2023-02-04T19:39:40.538Z,2.70
2023-02-04T19:42:31.481Z,2.50
2023-02-04T19:45:09.542Z,2.40
2023-02-04T19:47:46.648Z,2.40
2023-02-04T19:50:20.505Z,2.30
2023-02-04T19:53:11.228Z,2.60
2023-02-04T19:55:44.092Z,2.40
2023-02-04T19:58:16.381Z,2.30
2023-02-04T20:01:02.765Z,2.30
2023-02-04T20:04:00.269Z,2.40
2023-02-04T20:06:32.048Z,2.40
2023-02-04T20:09:20.474Z,2.50
2023-02-04T20:11:58.866Z,2.70
2023-02-04T20:14:49.535Z,2.30
2023-02-04T20:17:36.448Z,2.40
2023-02-04T20:20:17.960Z,2.50
2023-02-04T20:22:57.180Z,2.50
2023-02-04T20:25:48.616Z,2.80
2023-02-04T20:28:19.360Z,3.50
2023-02-04T20:30:49.330Z,7.80
2023-02-04T20:33:29.926Z,7.90
2023-02-04T20:36:34.725Z,4.20
2023-02-04T20:39:08.713Z,3.70
2023-02-04T20:41:37.770Z,3.80
2023-02-04T20:44:15.400Z,3.70
2023-02-04T20:46:46.339Z,3.50
2023-02-04T20:49:25.108Z,3.20
2023-02-04T20:51:59.380Z,3.80
2023-02-04T20:54:28.508Z,3.60
2023-02-04T20:57:03.592Z,3.60
2023-02-04T20:59:37.874Z,3.40
2023-02-04T21:02:18.920Z,3.10
2023-02-04T21:04:55.689Z,3.00
2023-02-04T21:07:29.182Z,3.20
2023-02-04T21:10:08.811Z,3.00
2023-02-04T21:12:50.919Z,2.90
2023-02-04T21:15:34.635Z,3.40
2023-02-04T21:18:36.242Z,2.80
2023-02-04T21:21:13.809Z,3.50
2023-02-04T21:23:59.073Z,4.00
2023-02-04T21:26:27.043Z,4.10
2023-02-04T21:28:55.139Z,4.20
2023-02-04T21:31:23.139Z,3.90
2023-02-04T21:33:51.918Z,4.00
2023-02-04T21:36:20.127Z,4.10
2023-02-04T21:38:48.218Z,3.40
2023-02-04T21:41:16.719Z,3.40
2023-02-04T21:43:44.712Z,2.60
2023-02-04T21:46:13.168Z,2.70
2023-02-04T21:48:41.400Z,3.20
2023-02-04T21:51:09.595Z,3.30
2023-02-04T21:53:39.089Z,3.30
2023-02-04T21:56:07.880Z,3.90
2023-02-04T21:58:37.070Z,4.30
2023-02-04T22:01:05.665Z,4.50
2023-02-04T22:03:33.659Z,4.50
2023-02-04T22:06:02.381Z,5.20
2023-02-04T22:09:51.704Z,5.00
2023-02-04T22:12:19.859Z,4.60
2023-02-04T22:14:47.802Z,4.50
2023-02-04T22:17:15.661Z,4.30
2023-02-04T22:19:43.517Z,4.90
2023-02-04T22:22:11.401Z,4.70
2023-02-04T22:24:39.386Z,5.10
2023-02-04T22:27:07.624Z,5.10
2023-02-04T22:29:35.817Z,5.30
2023-02-04T22:32:03.937Z,4.70
2023-02-04T22:34:34.329Z,4.90
2023-02-04T22:37:02.210Z,5.20
2023-02-04T22:39:30.175Z,5.70
2023-02-04T22:41:58.248Z,5.10
2023-02-04T22:44:26.194Z,6.40
2023-02-04T22:46:54.233Z,6.40
2023-02-04T22:49:22.182Z,5.60
2023-02-04T22:51:50.201Z,5.30
2023-02-04T22:54:18.153Z,6.40
2023-02-04T22:56:46.064Z,5.80
2023-02-04T22:59:14.156Z,5.90
2023-02-04T23:01:42.137Z,5.90
2023-02-04T23:04:10.100Z,5.50
2023-02-04T23:06:38.340Z,4.80
2023-02-04T23:09:06.316Z,4.80
2023-02-04T23:11:35.021Z,4.40
2023-02-04T23:14:03.046Z,5.00
2023-02-04T23:16:32.607Z,3.60
2023-02-04T23:19:01.389Z,3.50
2023-02-04T23:21:29.520Z,3.70
2023-02-04T23:23:59.784Z,4.00
2023-02-04T23:26:27.602Z,3.70
2023-02-04T23:28:55.832Z,3.30
2023-02-04T23:31:23.893Z,3.60
2023-02-04T23:33:52.056Z,2.80
2023-02-04T23:36:20.132Z,2.80
2023-02-04T23:38:48.078Z,2.80
2023-02-04T23:41:16.047Z,3.30
2023-02-04T23:43:43.939Z,3.10
2023-02-04T23:46:11.890Z,3.00
2023-02-04T23:48:39.956Z,3.00
2023-02-04T23:51:07.909Z,3.00
2023-02-04T23:53:36.540Z,3.00
2023-02-04T23:56:04.860Z,2.90
2023-02-04T23:58:32.771Z,2.80
